Neola, West Virginia
Current Conditions -  °F | °C
As of 5:15 AM on Thursday 23 Oct 2014 (Local Time) from KHSP Reporting Station
Overcast Overcast  
Wind Chill: 28°   Ceiling: 600
Heat Index: 38°   Visibility: 10mi
Dew Point: 36°   Wind: 20mph
Humidity: 93%   Direction: 300°WNW
Pressure: 30.02"   Gusts: 26mph
Location:  37.97°N, 80.13°W
Report Text: KHSP 230915Z AUTO 30017G23KT 10SM OVC006 04/02 A3002 RMK AO2 T00350024
Loading
Personal Weather Stations






























Interactive Weather Map
Tropical Storm Tracking
New forecast layout! Learn more

10-Day Weather Forecast

Advertisements
Track Severe Weather on mobile